Campanya meteocatpedra

Dades EMA Tornabous

?
?
Resum diari 21:00 TU
Dades diàries de l'estació meteorològica
Temperatura mitjana 25.2 °C
Temperatura màxima 31.4 °C 14:49 TU
Temperatura mínima 18.9 °C 2:46 TU
Humitat relativa mitjana 66%
Precipitació acumulada 0.0 mm
Ratxa màxima del vent (2 m) 15.5 km/h - 288º 13:54 TU

El tram horari està expressat en Temps Universal (TU). Cal sumar una hora en horari d'hivern i dues en horari d'estiu per passar a l'hora oficial.

Tornabous

Metadades estació meteorol´gica
Municipi Tornabous
Comarca Urgell
Altitud 291 m
Data alta 06.08.2013
Estat actual Operativa
Dades de període
Període
TU
TM
°C
TX
°C
TN
°C
HRM
%
PPT
mm
VVM (2 m)
km/h
DVM (2 m)
graus
VVX (2 m)
km/h
00:00 - 00:30 20.2 20.7 19.9 71 0.0 2.5 69 10.1
00:30 - 01:00 20.5 20.7 20.3 70 0.0 2.9 78 7.9
01:00 - 01:30 20.3 20.6 20.1 73 0.0 2.5 87 6.8
01:30 - 02:00 20.1 20.2 20.0 75 0.0 1.8 87 6.1
02:00 - 02:30 19.6 20.1 19.1 79 0.0 0.4 88 3.6
02:30 - 03:00 19.1 19.6 18.9 81 0.0 0.7 71 6.1
03:00 - 03:30 20.1 20.6 19.7 76 0.0 1.1 68 4.7
03:30 - 04:00 20.6 20.7 20.5 74 0.0 2.2 63 7.2
04:00 - 04:30 20.8 20.9 20.7 77 0.0 2.2 74 7.6
04:30 - 05:00 20.5 20.8 20.2 81 0.0 0.4 82 5.8
05:00 - 05:30 20.0 20.2 19.9 85 0.0 0.4 101 2.9
05:30 - 06:00 20.2 20.7 20.0 86 0.0 0.0 109 2.9
06:00 - 06:30 21.6 22.3 20.8 82 0.0 0.0 88 2.5
06:30 - 07:00 23.1 23.5 22.3 76 0.0 0.0 122 2.9
07:00 - 07:30 23.4 23.6 23.3 71 0.0 0.7 234 4.0
07:30 - 08:00 24.3 24.8 23.6 68 0.0 1.4 260 5.8
08:00 - 08:30 24.6 25.3 24.1 68 0.0 1.8 280 6.5
08:30 - 09:00 25.2 25.4 25.0 67 0.0 2.9 275 7.6
09:00 - 09:30 25.7 26.1 25.3 64 0.0 3.6 267 9.4
09:30 - 10:00 26.2 26.6 25.8 64 0.0 4.0 274 8.6
10:00 - 10:30 26.9 27.8 26.3 62 0.0 4.3 294 11.2
10:30 - 11:00 27.3 28.0 26.8 61 0.0 4.7 281 11.5
11:00 - 11:30 28.1 28.3 27.9 57 0.0 4.3 297 12.6
11:30 - 12:00 28.7 29.1 28.1 55 0.0 3.6 289 10.1
12:00 - 12:30 29.2 29.6 28.8 54 0.0 4.0 272 11.5
12:30 - 13:00 29.7 30.0 29.4 53 0.0 4.3 276 12.2
13:00 - 13:30 30.1 30.6 29.7 52 0.0 5.8 285 11.9
13:30 - 14:00 30.5 31.1 29.9 51 0.0 5.0 285 15.5
14:00 - 14:30 30.6 30.8 30.4 51 0.0 4.3 275 11.9
14:30 - 15:00 31.0 31.4 30.8 53 0.0 4.7 271 11.9
15:00 - 15:30 31.0 31.2 30.7 53 0.0 5.0 285 12.2
15:30 - 16:00 30.7 31.2 30.4 52 0.0 4.3 282 9.7
16:00 - 16:30 30.9 31.3 30.7 53 0.0 4.3 281 12.6
16:30 - 17:00 30.8 31.0 30.6 52 0.0 4.0 277 9.4
17:00 - 17:30 30.2 30.6 30.0 53 0.0 4.0 274 9.0
17:30 - 18:00 30.0 30.1 29.5 54 0.0 0.7 243 4.7
18:00 - 18:30 28.4 29.5 26.9 63 0.0 0.0 174 1.8
18:30 - 19:00 26.0 26.8 25.1 68 0.0 1.4 180 4.0
19:00 - 19:30 25.4 25.8 25.0 66 0.0 2.5 170 7.9
19:30 - 20:00 24.8 25.1 24.2 66 0.0 2.2 142 6.8
20:00 - 20:30 23.7 24.2 23.3 70 0.0 2.2 109 5.4
20:30 - 21:00 23.0 23.4 22.3 72 0.0 0.7 108 4.3
21:00 - 21:30 21.9 22.2 21.6 78 0.0 0.4 60 3.2

Les dades en taronja només han passat un control de qualitat automàtic. Resta pendent la seva validació definitiva.